sensor_id;sensor_type;location;lat;lon;timestamp;P1;durP1;ratioP1;P2;durP2;ratioP2
39340;SDS011;25059;52.132;21.062;2023-05-07T00:01:49;0.20;;;0.20;;
39340;SDS011;25059;52.132;21.062;2023-05-07T00:04:34;0.20;;;0.20;;
39340;SDS011;25059;52.132;21.062;2023-05-07T00:07:21;0.15;;;0.15;;
39340;SDS011;25059;52.132;21.062;2023-05-07T00:10:06;0.20;;;0.20;;
39340;SDS011;25059;52.132;21.062;2023-05-07T00:12:50;0.20;;;0.20;;
39340;SDS011;25059;52.132;21.062;2023-05-07T00:15:35;0.20;;;0.20;;
39340;SDS011;25059;52.132;21.062;2023-05-07T00:18:19;0.20;;;0.20;;
39340;SDS011;25059;52.132;21.062;2023-05-07T00:21:06;0.20;;;0.20;;
39340;SDS011;25059;52.132;21.062;2023-05-07T00:23:50;0.20;;;0.20;;
39340;SDS011;25059;52.132;21.062;2023-05-07T00:26:35;0.20;;;0.20;;
39340;SDS011;25059;52.132;21.062;2023-05-07T00:29:20;0.10;;;0.10;;
39340;SDS011;25059;52.132;21.062;2023-05-07T00:32:04;0.20;;;0.20;;
39340;SDS011;25059;52.132;21.062;2023-05-07T00:34:49;0.20;;;0.20;;
39340;SDS011;25059;52.132;21.062;2023-05-07T00:37:35;0.20;;;0.20;;
39340;SDS011;25059;52.132;21.062;2023-05-07T00:40:19;0.22;;;0.22;;
39340;SDS011;25059;52.132;21.062;2023-05-07T00:43:04;0.20;;;0.20;;
39340;SDS011;25059;52.132;21.062;2023-05-07T00:45:49;0.20;;;0.20;;
39340;SDS011;25059;52.132;21.062;2023-05-07T00:48:34;0.20;;;0.20;;
39340;SDS011;25059;52.132;21.062;2023-05-07T00:51:19;0.20;;;0.20;;
39340;SDS011;25059;52.132;21.062;2023-05-07T00:54:04;0.13;;;0.13;;
39340;SDS011;25059;52.132;21.062;2023-05-07T00:56:49;0.10;;;0.10;;
39340;SDS011;25059;52.132;21.062;2023-05-07T00:59:33;0.20;;;0.20;;
39340;SDS011;25059;52.132;21.062;2023-05-07T01:02:18;0.20;;;0.20;;
39340;SDS011;25059;52.132;21.062;2023-05-07T01:05:04;0.20;;;0.20;;
39340;SDS011;25059;52.132;21.062;2023-05-07T01:07:50;0.20;;;0.20;;
39340;SDS011;25059;52.132;21.062;2023-05-07T01:10:37;0.20;;;0.20;;
39340;SDS011;25059;52.132;21.062;2023-05-07T01:13:27;0.20;;;0.20;;
39340;SDS011;25059;52.132;21.062;2023-05-07T01:16:12;0.20;;;0.20;;
39340;SDS011;25059;52.132;21.062;2023-05-07T01:18:56;0.20;;;0.20;;
39340;SDS011;25059;52.132;21.062;2023-05-07T01:21:43;0.20;;;0.20;;
39340;SDS011;25059;52.132;21.062;2023-05-07T01:24:31;0.20;;;0.20;;
39340;SDS011;25059;52.132;21.062;2023-05-07T01:27:16;0.20;;;0.20;;
39340;SDS011;25059;52.132;21.062;2023-05-07T01:30:00;0.30;;;0.30;;
39340;SDS011;25059;52.132;21.062;2023-05-07T01:35:35;0.20;;;0.20;;
39340;SDS011;25059;52.132;21.062;2023-05-07T01:38:23;0.20;;;0.20;;
39340;SDS011;25059;52.132;21.062;2023-05-07T01:41:07;0.20;;;0.20;;
39340;SDS011;25059;52.132;21.062;2023-05-07T01:43:52;0.20;;;0.20;;
39340;SDS011;25059;52.132;21.062;2023-05-07T01:46:38;0.20;;;0.20;;
39340;SDS011;25059;52.132;21.062;2023-05-07T01:49:23;0.20;;;0.20;;
39340;SDS011;25059;52.132;21.062;2023-05-07T01:52:09;0.20;;;0.20;;
39340;SDS011;25059;52.132;21.062;2023-05-07T01:54:55;0.20;;;0.20;;
39340;SDS011;25059;52.132;21.062;2023-05-07T01:57:39;0.20;;;0.20;;
39340;SDS011;25059;52.132;21.062;2023-05-07T02:00:25;0.20;;;0.20;;
39340;SDS011;25059;52.132;21.062;2023-05-07T02:03:09;0.20;;;0.20;;
39340;SDS011;25059;52.132;21.062;2023-05-07T02:05:54;0.20;;;0.20;;
39340;SDS011;25059;52.132;21.062;2023-05-07T02:08:39;0.15;;;0.15;;
39340;SDS011;25059;52.132;21.062;2023-05-07T02:11:23;0.13;;;0.13;;
39340;SDS011;25059;52.132;21.062;2023-05-07T02:14:09;0.20;;;0.20;;
39340;SDS011;25059;52.132;21.062;2023-05-07T02:16:53;0.20;;;0.20;;
39340;SDS011;25059;52.132;21.062;2023-05-07T02:19:38;0.17;;;0.17;;
39340;SDS011;25059;52.132;21.062;2023-05-07T02:22:22;0.20;;;0.20;;
39340;SDS011;25059;52.132;21.062;2023-05-07T02:25:07;0.20;;;0.20;;
39340;SDS011;25059;52.132;21.062;2023-05-07T02:27:51;0.20;;;0.20;;
39340;SDS011;25059;52.132;21.062;2023-05-07T02:30:36;0.20;;;0.20;;
39340;SDS011;25059;52.132;21.062;2023-05-07T02:33:21;0.20;;;0.20;;
39340;SDS011;25059;52.132;21.062;2023-05-07T02:36:06;0.20;;;0.20;;
39340;SDS011;25059;52.132;21.062;2023-05-07T02:38:53;0.20;;;0.20;;
39340;SDS011;25059;52.132;21.062;2023-05-07T02:41:38;0.20;;;0.20;;
39340;SDS011;25059;52.132;21.062;2023-05-07T02:44:22;0.20;;;0.20;;
39340;SDS011;25059;52.132;21.062;2023-05-07T02:47:07;0.20;;;0.20;;
39340;SDS011;25059;52.132;21.062;2023-05-07T02:49:53;0.20;;;0.20;;
39340;SDS011;25059;52.132;21.062;2023-05-07T02:52:38;0.20;;;0.20;;
39340;SDS011;25059;52.132;21.062;2023-05-07T02:55:23;0.10;;;0.10;;
39340;SDS011;25059;52.132;21.062;2023-05-07T02:58:07;0.20;;;0.20;;
39340;SDS011;25059;52.132;21.062;2023-05-07T03:00:52;0.10;;;0.10;;
39340;SDS011;25059;52.132;21.062;2023-05-07T03:03:36;0.20;;;0.20;;
39340;SDS011;25059;52.132;21.062;2023-05-07T03:06:21;0.20;;;0.20;;
39340;SDS011;25059;52.132;21.062;2023-05-07T03:09:06;0.20;;;0.20;;
39340;SDS011;25059;52.132;21.062;2023-05-07T03:11:51;0.20;;;0.20;;
39340;SDS011;25059;52.132;21.062;2023-05-07T03:14:35;0.20;;;0.20;;
39340;SDS011;25059;52.132;21.062;2023-05-07T03:17:20;0.20;;;0.20;;
39340;SDS011;25059;52.132;21.062;2023-05-07T03:20:05;0.20;;;0.20;;
39340;SDS011;25059;52.132;21.062;2023-05-07T03:22:50;0.20;;;0.20;;
39340;SDS011;25059;52.132;21.062;2023-05-07T03:25:35;0.10;;;0.10;;
39340;SDS011;25059;52.132;21.062;2023-05-07T03:28:20;0.13;;;0.13;;
39340;SDS011;25059;52.132;21.062;2023-05-07T03:31:04;0.10;;;0.10;;
39340;SDS011;25059;52.132;21.062;2023-05-07T03:33:53;0.20;;;0.20;;
39340;SDS011;25059;52.132;21.062;2023-05-07T03:36:38;0.20;;;0.20;;
39340;SDS011;25059;52.132;21.062;2023-05-07T03:39:23;0.10;;;0.10;;
39340;SDS011;25059;52.132;21.062;2023-05-07T03:42:08;0.20;;;0.20;;
39340;SDS011;25059;52.132;21.062;2023-05-07T03:44:52;0.20;;;0.20;;
39340;SDS011;25059;52.132;21.062;2023-05-07T03:47:37;0.20;;;0.20;;
39340;SDS011;25059;52.132;21.062;2023-05-07T03:50:22;0.20;;;0.20;;
39340;SDS011;25059;52.132;21.062;2023-05-07T03:53:06;0.20;;;0.20;;
39340;SDS011;25059;52.132;21.062;2023-05-07T03:55:51;0.20;;;0.20;;
39340;SDS011;25059;52.132;21.062;2023-05-07T03:58:35;0.20;;;0.20;;
39340;SDS011;25059;52.132;21.062;2023-05-07T04:01:20;0.20;;;0.20;;
39340;SDS011;25059;52.132;21.062;2023-05-07T04:04:04;0.20;;;0.20;;
39340;SDS011;25059;52.132;21.062;2023-05-07T04:06:49;0.20;;;0.20;;
39340;SDS011;25059;52.132;21.062;2023-05-07T04:09:34;0.20;;;0.20;;
39340;SDS011;25059;52.132;21.062;2023-05-07T04:12:18;0.20;;;0.20;;
39340;SDS011;25059;52.132;21.062;2023-05-07T04:15:03;0.20;;;0.20;;
39340;SDS011;25059;52.132;21.062;2023-05-07T04:17:48;0.20;;;0.20;;
39340;SDS011;25059;52.132;21.062;2023-05-07T04:20:33;0.20;;;0.20;;
39340;SDS011;25059;52.132;21.062;2023-05-07T04:23:20;0.20;;;0.20;;
39340;SDS011;25059;52.132;21.062;2023-05-07T04:26:04;0.20;;;0.20;;
39340;SDS011;25059;52.132;21.062;2023-05-07T04:28:49;0.20;;;0.20;;
39340;SDS011;25059;52.132;21.062;2023-05-07T04:31:33;0.20;;;0.20;;
39340;SDS011;25059;52.132;21.062;2023-05-07T04:34:18;0.20;;;0.20;;
39340;SDS011;25059;52.132;21.062;2023-05-07T04:37:02;0.10;;;0.10;;
39340;SDS011;25059;52.132;21.062;2023-05-07T04:39:47;0.20;;;0.20;;
39340;SDS011;25059;52.132;21.062;2023-05-07T04:42:31;0.10;;;0.10;;
39340;SDS011;25059;52.132;21.062;2023-05-07T04:45:16;0.20;;;0.20;;
39340;SDS011;25059;52.132;21.062;2023-05-07T04:48:00;0.10;;;0.10;;
39340;SDS011;25059;52.132;21.062;2023-05-07T04:50:48;0.20;;;0.20;;
39340;SDS011;25059;52.132;21.062;2023-05-07T04:53:33;0.20;;;0.20;;
39340;SDS011;25059;52.132;21.062;2023-05-07T04:56:18;0.20;;;0.20;;
39340;SDS011;25059;52.132;21.062;2023-05-07T04:59:03;0.20;;;0.20;;
39340;SDS011;25059;52.132;21.062;2023-05-07T05:01:47;0.20;;;0.20;;
39340;SDS011;25059;52.132;21.062;2023-05-07T05:04:32;0.20;;;0.20;;
39340;SDS011;25059;52.132;21.062;2023-05-07T05:07:16;0.20;;;0.20;;
39340;SDS011;25059;52.132;21.062;2023-05-07T05:10:01;0.20;;;0.20;;
39340;SDS011;25059;52.132;21.062;2023-05-07T05:12:47;0.20;;;0.20;;
39340;SDS011;25059;52.132;21.062;2023-05-07T05:15:32;0.10;;;0.10;;
39340;SDS011;25059;52.132;21.062;2023-05-07T05:18:16;0.20;;;0.20;;
39340;SDS011;25059;52.132;21.062;2023-05-07T05:21:01;0.20;;;0.20;;
39340;SDS011;25059;52.132;21.062;2023-05-07T05:23:45;0.20;;;0.20;;
39340;SDS011;25059;52.132;21.062;2023-05-07T05:26:30;0.20;;;0.20;;
39340;SDS011;25059;52.132;21.062;2023-05-07T05:29:15;0.20;;;0.20;;
39340;SDS011;25059;52.132;21.062;2023-05-07T05:31:59;0.20;;;0.20;;
39340;SDS011;25059;52.132;21.062;2023-05-07T05:34:44;0.13;;;0.13;;
39340;SDS011;25059;52.132;21.062;2023-05-07T05:37:28;0.20;;;0.20;;
39340;SDS011;25059;52.132;21.062;2023-05-07T05:40:14;0.20;;;0.20;;
39340;SDS011;25059;52.132;21.062;2023-05-07T05:42:59;0.20;;;0.20;;
39340;SDS011;25059;52.132;21.062;2023-05-07T05:45:44;0.10;;;0.10;;
39340;SDS011;25059;52.132;21.062;2023-05-07T05:48:28;0.20;;;0.20;;
39340;SDS011;25059;52.132;21.062;2023-05-07T05:51:13;0.13;;;0.13;;
39340;SDS011;25059;52.132;21.062;2023-05-07T05:53:58;0.20;;;0.20;;
39340;SDS011;25059;52.132;21.062;2023-05-07T05:56:42;0.20;;;0.20;;
39340;SDS011;25059;52.132;21.062;2023-05-07T05:59:27;0.20;;;0.20;;
39340;SDS011;25059;52.132;21.062;2023-05-07T06:02:11;0.20;;;0.20;;
39340;SDS011;25059;52.132;21.062;2023-05-07T06:04:55;0.20;;;0.20;;
39340;SDS011;25059;52.132;21.062;2023-05-07T06:07:40;0.30;;;0.30;;
39340;SDS011;25059;52.132;21.062;2023-05-07T06:10:24;0.20;;;0.20;;
39340;SDS011;25059;52.132;21.062;2023-05-07T06:13:10;0.17;;;0.17;;
39340;SDS011;25059;52.132;21.062;2023-05-07T06:15:54;0.20;;;0.20;;
39340;SDS011;25059;52.132;21.062;2023-05-07T06:18:39;0.20;;;0.20;;
39340;SDS011;25059;52.132;21.062;2023-05-07T06:21:24;0.20;;;0.20;;
39340;SDS011;25059;52.132;21.062;2023-05-07T06:24:08;0.20;;;0.20;;
39340;SDS011;25059;52.132;21.062;2023-05-07T06:26:54;0.20;;;0.20;;
39340;SDS011;25059;52.132;21.062;2023-05-07T06:29:39;0.20;;;0.20;;
39340;SDS011;25059;52.132;21.062;2023-05-07T06:32:23;0.20;;;0.20;;
39340;SDS011;25059;52.132;21.062;2023-05-07T06:35:08;0.20;;;0.20;;
39340;SDS011;25059;52.132;21.062;2023-05-07T06:37:53;0.20;;;0.20;;
39340;SDS011;25059;52.132;21.062;2023-05-07T06:40:37;0.20;;;0.20;;
39340;SDS011;25059;52.132;21.062;2023-05-07T06:43:22;0.20;;;0.20;;
39340;SDS011;25059;52.132;21.062;2023-05-07T06:46:07;0.20;;;0.20;;
39340;SDS011;25059;52.132;21.062;2023-05-07T06:48:52;0.20;;;0.20;;
39340;SDS011;25059;52.132;21.062;2023-05-07T06:51:36;0.10;;;0.10;;
39340;SDS011;25059;52.132;21.062;2023-05-07T06:54:21;0.10;;;0.10;;
39340;SDS011;25059;52.132;21.062;2023-05-07T06:57:07;0.20;;;0.20;;
39340;SDS011;25059;52.132;21.062;2023-05-07T06:59:51;0.10;;;0.10;;
39340;SDS011;25059;52.132;21.062;2023-05-07T07:02:36;0.10;;;0.10;;
39340;SDS011;25059;52.132;21.062;2023-05-07T07:05:20;0.13;;;0.13;;
39340;SDS011;25059;52.132;21.062;2023-05-07T07:08:05;0.10;;;0.10;;
39340;SDS011;25059;52.132;21.062;2023-05-07T07:10:50;0.10;;;0.10;;
39340;SDS011;25059;52.132;21.062;2023-05-07T07:13:35;0.10;;;0.10;;
39340;SDS011;25059;52.132;21.062;2023-05-07T07:16:20;0.20;;;0.20;;
39340;SDS011;25059;52.132;21.062;2023-05-07T07:19:05;0.10;;;0.10;;
39340;SDS011;25059;52.132;21.062;2023-05-07T07:21:50;0.20;;;0.20;;
39340;SDS011;25059;52.132;21.062;2023-05-07T07:24:35;0.20;;;0.20;;
39340;SDS011;25059;52.132;21.062;2023-05-07T07:27:20;0.10;;;0.10;;
39340;SDS011;25059;52.132;21.062;2023-05-07T07:30:04;0.10;;;0.10;;
39340;SDS011;25059;52.132;21.062;2023-05-07T07:32:50;0.10;;;0.10;;
39340;SDS011;25059;52.132;21.062;2023-05-07T07:35:35;0.10;;;0.10;;
39340;SDS011;25059;52.132;21.062;2023-05-07T07:38:20;0.10;;;0.10;;
39340;SDS011;25059;52.132;21.062;2023-05-07T07:41:05;0.10;;;0.10;;
39340;SDS011;25059;52.132;21.062;2023-05-07T07:43:49;0.10;;;0.10;;
39340;SDS011;25059;52.132;21.062;2023-05-07T07:46:34;0.10;;;0.10;;
39340;SDS011;25059;52.132;21.062;2023-05-07T07:49:18;0.10;;;0.10;;
39340;SDS011;25059;52.132;21.062;2023-05-07T07:52:03;0.10;;;0.10;;
39340;SDS011;25059;52.132;21.062;2023-05-07T07:54:47;0.20;;;0.20;;
39340;SDS011;25059;52.132;21.062;2023-05-07T07:57:32;0.10;;;0.10;;
39340;SDS011;25059;52.132;21.062;2023-05-07T08:00:17;0.10;;;0.10;;
39340;SDS011;25059;52.132;21.062;2023-05-07T08:03:02;0.10;;;0.10;;
39340;SDS011;25059;52.132;21.062;2023-05-07T08:05:46;0.10;;;0.10;;
39340;SDS011;25059;52.132;21.062;2023-05-07T08:08:31;0.10;;;0.10;;
39340;SDS011;25059;52.132;21.062;2023-05-07T08:11:16;0.10;;;0.10;;
39340;SDS011;25059;52.132;21.062;2023-05-07T08:14:00;0.10;;;0.10;;
39340;SDS011;25059;52.132;21.062;2023-05-07T08:16:45;0.10;;;0.10;;
39340;SDS011;25059;52.132;21.062;2023-05-07T08:19:30;0.20;;;0.20;;
39340;SDS011;25059;52.132;21.062;2023-05-07T08:22:14;0.20;;;0.20;;
39340;SDS011;25059;52.132;21.062;2023-05-07T08:24:59;0.10;;;0.10;;
39340;SDS011;25059;52.132;21.062;2023-05-07T08:27:44;0.10;;;0.10;;
39340;SDS011;25059;52.132;21.062;2023-05-07T08:30:29;0.10;;;0.10;;
39340;SDS011;25059;52.132;21.062;2023-05-07T08:33:13;0.10;;;0.10;;
39340;SDS011;25059;52.132;21.062;2023-05-07T08:35:58;0.10;;;0.10;;
39340;SDS011;25059;52.132;21.062;2023-05-07T08:38:43;0.10;;;0.10;;
39340;SDS011;25059;52.132;21.062;2023-05-07T08:41:30;0.10;;;0.10;;
39340;SDS011;25059;52.132;21.062;2023-05-07T08:44:15;0.13;;;0.13;;
39340;SDS011;25059;52.132;21.062;2023-05-07T08:47:02;0.10;;;0.10;;
39340;SDS011;25059;52.132;21.062;2023-05-07T08:49:47;0.10;;;0.10;;
39340;SDS011;25059;52.132;21.062;2023-05-07T08:52:31;0.10;;;0.10;;
39340;SDS011;25059;52.132;21.062;2023-05-07T08:55:16;0.20;;;0.20;;
39340;SDS011;25059;52.132;21.062;2023-05-07T08:58:01;0.10;;;0.10;;
39340;SDS011;25059;52.132;21.062;2023-05-07T09:00:46;0.10;;;0.10;;
39340;SDS011;25059;52.132;21.062;2023-05-07T09:03:31;0.10;;;0.10;;
39340;SDS011;25059;52.132;21.062;2023-05-07T09:06:16;0.20;;;0.20;;
39340;SDS011;25059;52.132;21.062;2023-05-07T09:09:01;0.20;;;0.20;;
39340;SDS011;25059;52.132;21.062;2023-05-07T09:11:46;0.20;;;0.20;;
39340;SDS011;25059;52.132;21.062;2023-05-07T09:14:31;0.10;;;0.10;;
39340;SDS011;25059;52.132;21.062;2023-05-07T09:17:16;0.20;;;0.20;;
39340;SDS011;25059;52.132;21.062;2023-05-07T09:20:02;0.10;;;0.10;;
39340;SDS011;25059;52.132;21.062;2023-05-07T09:22:48;0.20;;;0.20;;
39340;SDS011;25059;52.132;21.062;2023-05-07T09:25:34;0.10;;;0.10;;
39340;SDS011;25059;52.132;21.062;2023-05-07T09:28:19;0.10;;;0.10;;
39340;SDS011;25059;52.132;21.062;2023-05-07T09:31:04;0.10;;;0.10;;
39340;SDS011;25059;52.132;21.062;2023-05-07T09:33:49;0.10;;;0.10;;
39340;SDS011;25059;52.132;21.062;2023-05-07T09:36:33;0.10;;;0.10;;
39340;SDS011;25059;52.132;21.062;2023-05-07T09:39:18;0.10;;;0.10;;
39340;SDS011;25059;52.132;21.062;2023-05-07T09:42:02;0.10;;;0.10;;
39340;SDS011;25059;52.132;21.062;2023-05-07T09:44:47;0.10;;;0.10;;
39340;SDS011;25059;52.132;21.062;2023-05-07T09:47:32;0.10;;;0.10;;
39340;SDS011;25059;52.132;21.062;2023-05-07T09:50:24;0.10;;;0.10;;
39340;SDS011;25059;52.132;21.062;2023-05-07T09:53:11;0.10;;;0.10;;
39340;SDS011;25059;52.132;21.062;2023-05-07T09:55:58;0.15;;;0.15;;
39340;SDS011;25059;52.132;21.062;2023-05-07T09:58:43;0.17;;;0.17;;
39340;SDS011;25059;52.132;21.062;2023-05-07T10:01:30;0.10;;;0.10;;
39340;SDS011;25059;52.132;21.062;2023-05-07T10:04:15;0.10;;;0.10;;
39340;SDS011;25059;52.132;21.062;2023-05-07T10:07:00;0.10;;;0.10;;
39340;SDS011;25059;52.132;21.062;2023-05-07T10:09:47;0.20;;;0.20;;
39340;SDS011;25059;52.132;21.062;2023-05-07T10:12:32;0.10;;;0.10;;
39340;SDS011;25059;52.132;21.062;2023-05-07T10:15:23;0.10;;;0.10;;
39340;SDS011;25059;52.132;21.062;2023-05-07T10:18:08;0.17;;;0.17;;
39340;SDS011;25059;52.132;21.062;2023-05-07T10:20:54;0.10;;;0.10;;
39340;SDS011;25059;52.132;21.062;2023-05-07T10:23:49;0.10;;;0.10;;
39340;SDS011;25059;52.132;21.062;2023-05-07T10:26:35;0.10;;;0.10;;
39340;SDS011;25059;52.132;21.062;2023-05-07T10:35:21;0.10;;;0.10;;
39340;SDS011;25059;52.132;21.062;2023-05-07T10:38:08;0.10;;;0.10;;
39340;SDS011;25059;52.132;21.062;2023-05-07T10:40:53;0.10;;;0.10;;
39340;SDS011;25059;52.132;21.062;2023-05-07T10:43:39;0.10;;;0.10;;
39340;SDS011;25059;52.132;21.062;2023-05-07T10:46:25;0.10;;;0.10;;
39340;SDS011;25059;52.132;21.062;2023-05-07T10:49:10;0.10;;;0.10;;
39340;SDS011;25059;52.132;21.062;2023-05-07T10:52:11;0.20;;;0.20;;
39340;SDS011;25059;52.132;21.062;2023-05-07T10:58:21;0.10;;;0.10;;
39340;SDS011;25059;52.132;21.062;2023-05-07T11:01:12;0.10;;;0.10;;
39340;SDS011;25059;52.132;21.062;2023-05-07T11:15:33;0.10;;;0.10;;
39340;SDS011;25059;52.132;21.062;2023-05-07T11:18:20;0.10;;;0.10;;
39340;SDS011;25059;52.132;21.062;2023-05-07T11:21:05;0.10;;;0.10;;
39340;SDS011;25059;52.132;21.062;2023-05-07T11:26:43;0.10;;;0.10;;
39340;SDS011;25059;52.132;21.062;2023-05-07T11:29:29;0.10;;;0.10;;
39340;SDS011;25059;52.132;21.062;2023-05-07T11:32:14;0.10;;;0.10;;
39340;SDS011;25059;52.132;21.062;2023-05-07T11:35:00;0.10;;;0.10;;
39340;SDS011;25059;52.132;21.062;2023-05-07T11:37:44;0.10;;;0.10;;
39340;SDS011;25059;52.132;21.062;2023-05-07T11:40:31;0.10;;;0.10;;
39340;SDS011;25059;52.132;21.062;2023-05-07T11:43:15;0.10;;;0.10;;
39340;SDS011;25059;52.132;21.062;2023-05-07T11:46:08;0.10;;;0.10;;
39340;SDS011;25059;52.132;21.062;2023-05-07T11:48:54;0.20;;;0.20;;
39340;SDS011;25059;52.132;21.062;2023-05-07T11:51:39;0.10;;;0.10;;
39340;SDS011;25059;52.132;21.062;2023-05-07T11:54:25;0.10;;;0.10;;
39340;SDS011;25059;52.132;21.062;2023-05-07T11:57:14;0.10;;;0.10;;
39340;SDS011;25059;52.132;21.062;2023-05-07T11:59:59;0.10;;;0.10;;
39340;SDS011;25059;52.132;21.062;2023-05-07T12:02:46;0.10;;;0.10;;
39340;SDS011;25059;52.132;21.062;2023-05-07T12:05:30;0.10;;;0.10;;
39340;SDS011;25059;52.132;21.062;2023-05-07T12:08:15;0.10;;;0.10;;
39340;SDS011;25059;52.132;21.062;2023-05-07T12:11:00;0.10;;;0.10;;
39340;SDS011;25059;52.132;21.062;2023-05-07T12:13:45;0.10;;;0.10;;
39340;SDS011;25059;52.132;21.062;2023-05-07T12:16:29;0.10;;;0.10;;
39340;SDS011;25059;52.132;21.062;2023-05-07T12:19:16;0.10;;;0.10;;
39340;SDS011;25059;52.132;21.062;2023-05-07T12:22:01;0.10;;;0.10;;
39340;SDS011;25059;52.132;21.062;2023-05-07T12:24:48;0.03;;;0.03;;
39340;SDS011;25059;52.132;21.062;2023-05-07T12:27:40;0.10;;;0.10;;
39340;SDS011;25059;52.132;21.062;2023-05-07T12:30:25;0.00;;;0.00;;
39340;SDS011;25059;52.132;21.062;2023-05-07T12:33:09;0.10;;;0.10;;
39340;SDS011;25059;52.132;21.062;2023-05-07T12:35:55;0.10;;;0.10;;
39340;SDS011;25059;52.132;21.062;2023-05-07T12:38:40;0.10;;;0.10;;
39340;SDS011;25059;52.132;21.062;2023-05-07T12:41:25;0.10;;;0.10;;
39340;SDS011;25059;52.132;21.062;2023-05-07T12:44:10;0.10;;;0.10;;
39340;SDS011;25059;52.132;21.062;2023-05-07T12:46:55;0.10;;;0.10;;
39340;SDS011;25059;52.132;21.062;2023-05-07T12:49:40;0.00;;;0.00;;
39340;SDS011;25059;52.132;21.062;2023-05-07T12:52:25;0.10;;;0.10;;
39340;SDS011;25059;52.132;21.062;2023-05-07T12:55:12;0.10;;;0.10;;
39340;SDS011;25059;52.132;21.062;2023-05-07T12:58:00;0.10;;;0.10;;
39340;SDS011;25059;52.132;21.062;2023-05-07T13:00:45;0.10;;;0.10;;
39340;SDS011;25059;52.132;21.062;2023-05-07T13:03:33;0.10;;;0.10;;
39340;SDS011;25059;52.132;21.062;2023-05-07T13:06:19;0.10;;;0.10;;
39340;SDS011;25059;52.132;21.062;2023-05-07T13:09:04;0.10;;;0.10;;
39340;SDS011;25059;52.132;21.062;2023-05-07T13:11:48;0.10;;;0.10;;
39340;SDS011;25059;52.132;21.062;2023-05-07T13:14:33;0.10;;;0.10;;
39340;SDS011;25059;52.132;21.062;2023-05-07T13:17:17;0.10;;;0.10;;
39340;SDS011;25059;52.132;21.062;2023-05-07T13:20:03;0.10;;;0.10;;
39340;SDS011;25059;52.132;21.062;2023-05-07T13:22:47;0.10;;;0.10;;
39340;SDS011;25059;52.132;21.062;2023-05-07T13:25:32;0.10;;;0.10;;
39340;SDS011;25059;52.132;21.062;2023-05-07T13:28:16;0.10;;;0.10;;
39340;SDS011;25059;52.132;21.062;2023-05-07T13:31:01;0.10;;;0.10;;
39340;SDS011;25059;52.132;21.062;2023-05-07T13:33:46;0.10;;;0.10;;
39340;SDS011;25059;52.132;21.062;2023-05-07T13:36:31;0.10;;;0.10;;
39340;SDS011;25059;52.132;21.062;2023-05-07T13:39:19;0.10;;;0.10;;
39340;SDS011;25059;52.132;21.062;2023-05-07T13:42:04;0.10;;;0.10;;
39340;SDS011;25059;52.132;21.062;2023-05-07T13:44:48;0.10;;;0.10;;
39340;SDS011;25059;52.132;21.062;2023-05-07T13:47:33;0.10;;;0.10;;
39340;SDS011;25059;52.132;21.062;2023-05-07T13:50:17;0.10;;;0.10;;
39340;SDS011;25059;52.132;21.062;2023-05-07T13:53:02;0.10;;;0.10;;
39340;SDS011;25059;52.132;21.062;2023-05-07T13:55:46;0.03;;;0.03;;
39340;SDS011;25059;52.132;21.062;2023-05-07T13:58:31;0.10;;;0.10;;
39340;SDS011;25059;52.132;21.062;2023-05-07T14:01:15;0.10;;;0.10;;
39340;SDS011;25059;52.132;21.062;2023-05-07T14:04:00;0.00;;;0.00;;
39340;SDS011;25059;52.132;21.062;2023-05-07T14:06:45;0.00;;;0.00;;
39340;SDS011;25059;52.132;21.062;2023-05-07T14:09:29;0.00;;;0.00;;
39340;SDS011;25059;52.132;21.062;2023-05-07T14:12:14;0.00;;;0.00;;
39340;SDS011;25059;52.132;21.062;2023-05-07T14:14:59;0.10;;;0.10;;
39340;SDS011;25059;52.132;21.062;2023-05-07T14:17:44;0.05;;;0.05;;
39340;SDS011;25059;52.132;21.062;2023-05-07T14:20:28;0.10;;;0.10;;
39340;SDS011;25059;52.132;21.062;2023-05-07T14:23:14;0.10;;;0.10;;
39340;SDS011;25059;52.132;21.062;2023-05-07T14:26:01;0.10;;;0.10;;
39340;SDS011;25059;52.132;21.062;2023-05-07T14:28:45;0.10;;;0.10;;
39340;SDS011;25059;52.132;21.062;2023-05-07T14:31:30;0.10;;;0.10;;
39340;SDS011;25059;52.132;21.062;2023-05-07T14:34:14;0.10;;;0.10;;
39340;SDS011;25059;52.132;21.062;2023-05-07T14:36:59;0.10;;;0.10;;
39340;SDS011;25059;52.132;21.062;2023-05-07T14:39:44;0.10;;;0.10;;
39340;SDS011;25059;52.132;21.062;2023-05-07T14:42:29;0.10;;;0.10;;
39340;SDS011;25059;52.132;21.062;2023-05-07T14:45:13;0.00;;;0.00;;
39340;SDS011;25059;52.132;21.062;2023-05-07T14:47:58;0.08;;;0.08;;
39340;SDS011;25059;52.132;21.062;2023-05-07T14:50:42;0.10;;;0.10;;
39340;SDS011;25059;52.132;21.062;2023-05-07T14:53:27;0.00;;;0.00;;
39340;SDS011;25059;52.132;21.062;2023-05-07T14:56:11;0.10;;;0.10;;
39340;SDS011;25059;52.132;21.062;2023-05-07T14:58:56;0.10;;;0.10;;
39340;SDS011;25059;52.132;21.062;2023-05-07T15:01:40;0.10;;;0.10;;
39340;SDS011;25059;52.132;21.062;2023-05-07T15:04:29;0.10;;;0.10;;
39340;SDS011;25059;52.132;21.062;2023-05-07T15:07:14;0.10;;;0.10;;
39340;SDS011;25059;52.132;21.062;2023-05-07T15:09:59;0.10;;;0.10;;
39340;SDS011;25059;52.132;21.062;2023-05-07T15:12:44;0.10;;;0.10;;
39340;SDS011;25059;52.132;21.062;2023-05-07T15:15:29;0.20;;;0.20;;
39340;SDS011;25059;52.132;21.062;2023-05-07T15:18:13;0.20;;;0.20;;
39340;SDS011;25059;52.132;21.062;2023-05-07T15:20:59;0.17;;;0.17;;
39340;SDS011;25059;52.132;21.062;2023-05-07T15:23:44;0.38;;;0.38;;
39340;SDS011;25059;52.132;21.062;2023-05-07T15:26:28;0.30;;;0.30;;
39340;SDS011;25059;52.132;21.062;2023-05-07T15:29:13;0.20;;;0.20;;
39340;SDS011;25059;52.132;21.062;2023-05-07T15:31:58;0.50;;;0.50;;
39340;SDS011;25059;52.132;21.062;2023-05-07T15:34:42;0.40;;;0.40;;
39340;SDS011;25059;52.132;21.062;2023-05-07T15:37:27;0.40;;;0.40;;
39340;SDS011;25059;52.132;21.062;2023-05-07T15:40:11;0.30;;;0.30;;
39340;SDS011;25059;52.132;21.062;2023-05-07T15:42:57;0.35;;;0.35;;
39340;SDS011;25059;52.132;21.062;2023-05-07T15:45:41;0.17;;;0.17;;
39340;SDS011;25059;52.132;21.062;2023-05-07T15:48:27;0.15;;;0.15;;
39340;SDS011;25059;52.132;21.062;2023-05-07T15:51:13;0.20;;;0.20;;
39340;SDS011;25059;52.132;21.062;2023-05-07T15:53:57;0.20;;;0.20;;
39340;SDS011;25059;52.132;21.062;2023-05-07T15:56:42;0.20;;;0.20;;
39340;SDS011;25059;52.132;21.062;2023-05-07T15:59:26;0.20;;;0.20;;
39340;SDS011;25059;52.132;21.062;2023-05-07T16:02:11;0.28;;;0.28;;
39340;SDS011;25059;52.132;21.062;2023-05-07T16:04:56;0.20;;;0.20;;
39340;SDS011;25059;52.132;21.062;2023-05-07T16:07:41;0.10;;;0.10;;
39340;SDS011;25059;52.132;21.062;2023-05-07T16:10:27;0.28;;;0.28;;
39340;SDS011;25059;52.132;21.062;2023-05-07T16:13:11;0.30;;;0.30;;
39340;SDS011;25059;52.132;21.062;2023-05-07T16:15:56;0.20;;;0.20;;
39340;SDS011;25059;52.132;21.062;2023-05-07T16:18:42;0.40;;;0.40;;
39340;SDS011;25059;52.132;21.062;2023-05-07T16:21:26;0.30;;;0.30;;
39340;SDS011;25059;52.132;21.062;2023-05-07T16:24:11;0.30;;;0.30;;
39340;SDS011;25059;52.132;21.062;2023-05-07T16:26:55;0.30;;;0.30;;
39340;SDS011;25059;52.132;21.062;2023-05-07T16:29:39;0.30;;;0.30;;
39340;SDS011;25059;52.132;21.062;2023-05-07T16:32:24;0.10;;;0.10;;
39340;SDS011;25059;52.132;21.062;2023-05-07T16:35:11;0.20;;;0.20;;
39340;SDS011;25059;52.132;21.062;2023-05-07T16:37:55;0.25;;;0.25;;
39340;SDS011;25059;52.132;21.062;2023-05-07T16:40:40;0.30;;;0.30;;
39340;SDS011;25059;52.132;21.062;2023-05-07T16:43:25;0.28;;;0.28;;
39340;SDS011;25059;52.132;21.062;2023-05-07T16:46:09;0.10;;;0.10;;